ROMMA est une association bénévole à but non lucratif. Votre soutien est indispensable : ADHERER à ROMMA ou FAIRE un DON

Nice - (06, Alpes-Maritimes)

Côte-d'Azur (190 m)   Longitude: 07° 14' E   Latitude: 43° 43' N Station partenaire n°136
 

Détail journalier du     <<     >>

Température Precipitation Humidité Pression Vent Dir Rafale Dir. rafale Ensol.
Heure (°C) (mm) (%) (hPa) (km/h) (km/h) (min)
01:00 15.008510193N13N0
02:00 15.408210194NNO15N0
03:00 15.907810184NNO13N0
04:00 14.908110183NNO11NNO0
05:00 15.407810186NNO15NNO0
06:00 14.208210174NNO13NNO0
07:00 14.708010173N10N0
08:00 15.107810174N16N0
09:00 16.507510185N13N30
10:00 17.807410183N13N40
11:00 18.607010182ESE8NNE20
12:00 18.907210182ONO10O0
13:00 19.707310184SO11OSO0
14:00 19.507410174SO13S10
15:00 19.407710176SSE15SE30
16:00 18.208210174SSE11SSE0
17:00 17.508910172S10S0
18:00 16.90.692101606S0
19:00 15.819310161NNE8NNE0
20:00 15.60.29310171NNE13NNO0
21:00 15.509410171E11N0
22:00 15.609410171N8N0
23:00 15.309310161NNO5NNO0
minuit 15.309310161---8N0

Graphique du 18-10-2019

 

Serveur OMMA